Time;durP1;ratioP1;P1;durP2;ratioP2;P2;SDS_P1;SDS_P2;PMS_P1;PMS_P2;Temp;Humidity;BMP_temperature;BMP_pressure;BME280_temperature;BME280_humidity;BME280_pressure;Samples;Min_cycle;Max_cycle;Signal;HPM_P1;HPM_P2
2021/03/06 00:00:03;;;;;;;14.43;7.37;;;6.90;99.90;;;7.14;57.36;103376.19;4916731;29;20048;-73
2021/03/06 00:02:31;;;;;;;14.63;7.07;;;7.00;99.90;;;7.14;57.33;103366.53;4916642;29;20134;-70
2021/03/06 00:04:58;;;;;;;10.20;7.03;;;7.00;99.90;;;7.12;57.69;103368.19;4916531;29;20498;-72
2021/03/06 00:07:26;;;;;;;15.27;6.97;;;6.90;99.90;;;7.11;57.96;103360.22;4916637;29;20047;-75
2021/03/06 00:09:53;;;;;;;12.13;7.17;;;6.90;99.90;;;7.07;58.06;103358.28;4916583;29;20506;-72
2021/03/06 00:12:21;;;;;;;19.17;7.97;;;6.90;99.90;;;7.08;58.39;103360.09;4916721;29;20063;-69
2021/03/06 00:14:49;;;;;;;16.00;8.13;;;6.80;99.90;;;7.12;58.07;103362.94;4916361;29;20048;-70
2021/03/06 00:17:17;;;;;;;13.17;7.17;;;6.90;99.90;;;6.56;58.63;103287.28;4916427;29;20048;-69
2021/03/06 00:19:44;;;;;;;13.93;7.20;;;6.80;99.90;;;6.99;58.63;103349.09;4915375;29;20494;-70
2021/03/06 00:22:12;;;;;;;14.10;7.57;;;6.80;99.90;;;7.03;58.41;103356.31;4916500;29;20103;-73
2021/03/06 00:24:39;;;;;;;19.83;8.13;;;6.80;99.90;;;7.02;58.59;103352.81;4899537;29;20525;-71
2021/03/06 00:27:06;;;;;;;14.60;7.87;;;6.80;99.90;;;7.00;58.37;103348.28;4916244;29;20114;-72
2021/03/06 00:29:34;;;;;;;11.13;7.60;;;6.80;99.90;;;6.93;58.73;103349.69;4916257;29;20109;-72
2021/03/06 00:32:03;;;;;;;17.40;8.70;;;6.70;99.90;;;6.97;58.99;103371.78;4916393;29;20051;-73
2021/03/06 00:34:31;;;;;;;13.17;7.73;;;6.80;99.90;;;6.95;59.12;103355.06;4916297;29;20045;-72
2021/03/06 00:36:58;;;;;;;12.17;7.03;;;6.70;99.90;;;7.00;59.06;103348.28;4919391;29;20044;-74
2021/03/06 00:39:26;;;;;;;11.60;7.23;;;6.80;99.90;;;7.01;58.85;103352.69;4920226;29;20044;-72
2021/03/06 00:41:54;;;;;;;12.27;7.13;;;6.80;99.90;;;6.92;59.39;103363.69;4920160;29;20056;-73
2021/03/06 00:44:21;;;;;;;11.83;7.17;;;6.80;99.90;;;6.85;59.37;103339.63;4920146;29;20051;-72
2021/03/06 00:46:48;;;;;;;13.53;6.90;;;6.70;99.90;;;6.91;59.61;103359.22;4920523;29;20052;-73
2021/03/06 00:49:19;;;;;;;12.83;6.73;;;6.70;99.90;;;6.81;59.67;103340.31;4919919;29;20486;-72
2021/03/06 00:51:47;;;;;;;12.48;7.03;;;6.70;99.90;;;6.82;59.75;103324.59;4903153;29;20056;-72
2021/03/06 00:54:19;;;;;;;15.73;6.63;;;6.70;99.90;;;6.95;59.88;103347.16;4919929;29;20056;-72
2021/03/06 00:56:48;;;;;;;18.20;7.50;;;6.70;99.90;;;6.91;59.99;103351.34;4902711;29;20050;-72
2021/03/06 00:59:17;;;;;;;19.87;7.50;;;6.70;99.90;;;6.90;60.05;103349.56;4903113;29;20044;-72
2021/03/06 01:01:45;;;;;;;14.93;7.40;;;6.70;99.90;;;6.85;60.17;103353.66;4902942;29;20055;-72
2021/03/06 01:04:13;;;;;;;16.43;6.83;;;6.70;99.90;;;6.84;60.22;103353.59;4902948;29;20055;-73
2021/03/06 01:06:42;;;;;;;12.97;7.33;;;6.70;99.90;;;6.05;60.39;103212.84;4902830;29;20059;-72
2021/03/06 01:09:09;;;;;;;15.93;7.23;;;6.70;99.90;;;6.76;60.54;103354.94;4919543;29;20037;-72
2021/03/06 01:11:36;;;;;;;14.23;7.00;;;6.60;99.90;;;6.75;60.42;103355.75;4919344;29;20135;-73
2021/03/06 01:14:04;;;;;;;12.27;6.83;;;6.60;99.90;;;6.75;60.64;103359.31;4902773;29;20135;-73
2021/03/06 01:16:32;;;;;;;15.30;7.63;;;6.50;99.90;;;6.71;60.66;103352.09;4919737;29;20072;-73
2021/03/06 01:18:59;;;;;;;12.83;8.37;;;6.50;99.90;;;6.66;60.71;103353.56;4902591;29;20167;-73
2021/03/06 01:21:27;;;;;;;15.20;7.70;;;6.50;99.90;;;6.66;60.62;103350.06;4919554;29;20471;-73
2021/03/06 01:23:55;;;;;;;20.97;8.53;;;6.50;99.90;;;6.67;60.70;103350.13;4919315;29;20044;-72
2021/03/06 01:26:22;;;;;;;17.67;7.70;;;6.50;99.90;;;6.63;60.73;103345.53;4902600;29;20056;-73
2021/03/06 01:28:50;;;;;;;14.95;7.10;;;6.50;99.90;;;6.65;60.91;103346.50;4919301;29;20044;-73
2021/03/06 01:31:17;;;;;;;12.73;7.70;;;6.50;99.90;;;6.67;61.00;103339.59;4919286;29;20048;-73
2021/03/06 01:33:45;;;;;;;12.90;7.90;;;6.50;99.90;;;6.64;60.71;103344.69;4902436;29;20052;-73
2021/03/06 01:36:13;;;;;;;16.20;7.77;;;6.50;99.90;;;6.63;60.74;103342.91;4902158;29;20563;-73
2021/03/06 01:38:40;;;;;;;12.43;7.90;;;6.50;99.90;;;6.61;61.04;103341.00;4919203;29;20569;-73
2021/03/06 01:41:08;;;;;;;11.37;7.83;;;6.40;99.90;;;6.39;61.02;103332.00;4902230;29;20048;-73
2021/03/06 01:43:36;;;;;;;14.07;7.10;;;6.30;99.90;;;6.25;61.25;103333.00;4919503;29;20048;-72
2021/03/06 01:46:03;;;;;;;14.90;7.50;;;6.10;99.90;;;6.28;61.34;103327.94;4919007;29;20103;-73
2021/03/06 01:48:31;;;;;;;15.80;7.83;;;6.10;99.90;;;5.60;61.57;103215.66;4919062;29;20107;-72
2021/03/06 01:50:59;;;;;;;15.07;8.17;;;6.00;99.90;;;6.21;61.73;103331.03;4918780;29;20063;-73
2021/03/06 01:53:26;;;;;;;17.43;7.67;;;6.00;99.90;;;6.36;61.34;103331.88;4902112;29;20067;-73
2021/03/06 01:55:54;;;;;;;11.40;8.10;;;6.10;99.90;;;5.92;61.61;103335.59;4901932;29;20540;-73
2021/03/06 01:58:22;;;;;;;11.43;8.27;;;5.80;99.90;;;5.72;62.10;103328.31;4918873;29;20044;-72
2021/03/06 02:00:50;;;;;;;13.77;8.73;;;5.60;99.90;;;5.58;62.10;103324.91;4901977;29;20100;-73
2021/03/06 02:03:18;;;;;;;10.47;8.00;;;5.40;99.90;;;5.34;62.37;103319.22;4918653;29;20506;-73
2021/03/06 02:05:45;;;;;;;11.93;8.43;;;5.20;99.90;;;5.16;62.18;103312.03;4918957;29;20406;-73
2021/03/06 02:08:13;;;;;;;9.67;8.40;;;5.00;99.90;;;5.02;62.25;103311.25;4918451;29;20048;-72
2021/03/06 02:10:43;;;;;;;16.60;8.53;;;4.80;99.90;;;4.93;63.15;103342.22;4918634;29;20123;-73
2021/03/06 02:13:45;;;;;;;14.30;8.37;;;4.70;99.90;;;4.94;62.38;103327.34;4918474;29;20182;-73
2021/03/06 02:16:24;;;;;;;18.50;9.03;;;4.70;99.90;;;4.89;63.40;103314.00;4918646;29;20414;-73
2021/03/06 02:18:58;;;;;;;12.85;8.50;;;4.60;99.90;;;4.83;62.89;103318.88;4901738;29;20143;-73
2021/03/06 02:21:36;;;;;;;13.97;8.97;;;4.60;99.90;;;4.83;63.41;103315.34;4901619;29;20080;-73
2021/03/06 02:24:59;;;;;;;13.47;8.70;;;4.60;99.90;;;4.73;63.30;103315.63;4918440;29;20138;-72
2021/03/06 02:27:33;;;;;;;12.00;8.67;;;4.50;99.90;;;4.56;63.63;103315.56;4900996;29;20107;-73
2021/03/06 02:30:04;;;;;;;11.67;8.53;;;4.40;99.90;;;3.91;63.71;103205.94;4918253;29;20112;-73
2021/03/06 02:32:37;;;;;;;12.20;8.33;;;4.30;99.90;;;3.79;64.17;103180.75;4917986;29;20081;-73
2021/03/06 02:35:09;;;;;;;13.33;8.57;;;4.30;99.90;;;4.52;64.16;103310.94;4901465;29;20502;-73
2021/03/06 02:37:42;;;;;;;12.93;8.53;;;4.30;99.90;;;4.35;64.47;103279.31;4918268;29;20048;-73
2021/03/06 02:40:12;;;;;;;15.13;8.77;;;4.30;99.90;;;4.52;64.74;103310.03;4918199;29;20072;-74
2021/03/06 02:42:41;;;;;;;14.20;9.60;;;4.30;99.90;;;4.32;64.73;103282.66;4918134;29;20048;-73
2021/03/06 02:45:11;;;;;;;10.77;8.53;;;4.20;99.90;;;4.30;64.75;103279.03;4917883;29;20541;-73
2021/03/06 02:47:39;;;;;;;12.30;8.63;;;4.20;99.90;;;4.48;64.58;103303.72;4918162;29;20048;-73
2021/03/06 02:50:10;;;;;;;12.37;9.30;;;4.20;99.90;;;4.53;65.06;103301.34;4917734;29;20044;-73
2021/03/06 02:52:37;;;;;;;;;;;4.30;99.90;;;4.34;65.09;103275.78;4918433;29;20052;-73
2021/03/06 02:55:07;;;;;;;10.47;9.17;;;4.30;99.90;;;4.42;65.24;103305.06;4917786;29;20009;-73
2021/03/06 02:58:04;;;;;;;12.15;8.82;;;4.20;99.90;;;4.34;65.41;103309.84;4917697;29;20040;-73
2021/03/06 03:00:42;;;;;;;15.73;9.27;;;4.20;99.90;;;4.34;65.14;103301.97;4917977;29;20047;-72
2021/03/06 03:03:34;;;;;;;15.50;9.50;;;4.10;99.90;;;4.29;65.44;103306.06;4900809;29;20052;-73
2021/03/06 03:06:14;;;;;;;10.80;9.60;;;4.10;99.90;;;4.14;65.38;103299.88;4917589;29;20052;-72
2021/03/06 03:08:55;;;;;;;11.70;9.43;;;3.90;99.90;;;4.09;65.78;103288.22;4917724;29;20071;-73
2021/03/06 03:11:31;;;;;;;11.87;8.73;;;3.90;99.90;;;4.14;65.40;103294.63;4917176;29;20466;-73
2021/03/06 03:14:00;;;;;;;12.63;9.60;;;3.90;99.90;;;4.11;65.22;103294.47;4900600;29;20056;-73
2021/03/06 03:16:34;;;;;;;11.68;9.68;;;3.90;99.90;;;4.09;65.67;103298.69;4917665;29;20071;-73
2021/03/06 03:19:08;;;;;;;13.10;9.80;;;3.90;99.90;;;4.04;65.64;103294.00;4900715;29;20048;-73
2021/03/06 03:21:41;;;;;;;14.67;9.03;;;3.80;99.90;;;4.15;65.87;103285.06;4917312;29;20095;-73
2021/03/06 03:24:14;;;;;;;14.03;9.27;;;3.90;99.90;;;3.62;66.10;103187.59;4900300;29;20067;-73
2021/03/06 03:26:44;;;;;;;15.53;9.67;;;4.00;99.90;;;4.29;65.68;103292.03;4917211;29;20048;-73
2021/03/06 03:29:14;;;;;;;14.97;9.83;;;4.10;99.90;;;4.30;65.98;103297.38;4917290;29;20080;-74
2021/03/06 03:31:46;;;;;;;14.47;9.47;;;4.10;99.90;;;4.20;66.23;103292.38;4917441;29;20111;-74
2021/03/06 03:34:17;;;;;;;13.10;9.13;;;4.10;99.90;;;4.13;66.62;103295.47;4917278;29;20043;-73
2021/03/06 03:36:45;;;;;;;10.45;9.40;;;4.00;99.90;;;4.10;66.31;103297.00;4917181;29;20075;-73
2021/03/06 03:39:13;;;;;;;13.30;9.67;;;3.90;99.90;;;3.99;66.52;103269.28;4900050;29;20478;-74
2021/03/06 03:41:41;;;;;;;13.33;9.83;;;3.90;99.90;;;4.17;66.31;103304.41;4917141;29;20044;-73
2021/03/06 03:44:10;;;;;;;13.10;10.97;;;4.00;99.90;;;4.10;66.39;103299.63;4900154;29;20542;-73
2021/03/06 03:46:40;;;;;;;15.90;9.93;;;3.90;99.90;;;4.02;66.87;103295.63;4916851;29;20123;-74
2021/03/06 03:49:15;;;;;;;13.60;9.77;;;3.80;99.90;;;4.07;67.65;103297.72;4917014;29;20051;-73
2021/03/06 03:51:43;;;;;;;11.07;9.87;;;3.80;99.90;;;4.00;68.18;103285.06;4916741;29;20052;-72
2021/03/06 03:54:15;;;;;;;11.57;9.60;;;3.80;99.90;;;3.98;67.89;103289.31;4916864;29;20076;-73
2021/03/06 03:56:43;;;;;;;10.57;9.27;;;3.70;99.90;;;3.17;67.81;103148.16;4916846;29;20048;-73
2021/03/06 03:59:11;;;;;;;10.90;8.80;;;3.70;99.90;;;3.91;68.53;103283.59;4916687;29;20536;-73
2021/03/06 04:01:43;;;;;;;11.53;10.43;;;3.70;99.90;;;3.75;68.56;103291.31;4916693;29;20048;-73
2021/03/06 04:04:29;;;;;;;12.17;10.17;;;3.60;99.90;;;3.74;69.12;103285.16;4916700;29;20698;-74
2021/03/06 04:06:59;;;;;;;13.80;10.00;;;3.50;99.90;;;3.67;69.19;103280.38;4916891;29;20055;-73
2021/03/06 04:09:28;;;;;;;9.65;8.65;;;3.50;99.90;;;3.58;69.24;103262.38;4916307;29;20044;-73
2021/03/06 04:11:56;;;;;;;9.97;8.97;;;3.40;99.90;;;3.59;69.45;103290.38;4916093;29;20075;-73
2021/03/06 04:14:23;;;;;;;10.10;9.10;;;3.40;99.90;;;3.59;68.64;103295.59;4916539;29;20048;-72
2021/03/06 04:16:50;;;;;;;9.77;8.77;;;3.40;99.90;;;3.57;68.99;103293.69;4916372;29;20454;-73
2021/03/06 04:19:19;;;;;;;9.57;8.80;;;3.40;99.90;;;3.58;68.84;103296.41;4899737;29;20578;-73
2021/03/06 04:21:46;;;;;;;9.33;8.43;;;3.30;99.90;;;3.52;69.62;103302.97;4916468;29;20183;-73
2021/03/06 04:24:14;;;;;;;8.80;8.00;;;3.30;99.90;;;3.62;69.87;103302.72;4916448;29;20099;-73
2021/03/06 04:26:50;;;;;;;9.40;8.53;;;3.40;99.90;;;3.44;69.40;103272.81;4916533;29;20072;-73
2021/03/06 04:29:19;;;;;;;8.47;7.67;;;3.40;99.90;;;3.63;69.47;103307.16;4916213;29;20054;-73
2021/03/06 04:31:47;;;;;;;9.30;8.33;;;3.40;99.90;;;3.33;69.47;103251.19;4899355;29;20099;-73
2021/03/06 04:34:15;;;;;;;10.70;8.40;;;3.40;99.90;;;3.59;69.03;103299.91;4899472;29;20085;-73
2021/03/06 04:36:44;;;;;;;10.17;9.37;;;3.40;99.90;;;3.67;69.00;103309.16;4916465;29;20071;-73
2021/03/06 04:39:11;;;;;;;9.63;8.63;;;3.50;99.90;;;3.74;68.53;103306.09;4916214;29;20103;-74
2021/03/06 04:41:39;;;;;;;8.87;8.07;;;3.50;99.90;;;3.69;68.12;103312.78;4916296;29;20076;-73
2021/03/06 04:44:08;;;;;;;7.87;7.27;;;3.50;99.90;;;3.67;68.27;103314.41;4899190;29;20466;-73
2021/03/06 04:46:36;;;;;;;9.90;7.90;;;3.50;99.90;;;3.55;68.58;103313.63;4916403;29;20040;-73
2021/03/06 04:49:04;;;;;;;7.60;7.00;;;3.40;99.90;;;3.55;68.58;103308.38;4916145;29;20502;-74
2021/03/06 04:51:31;;;;;;;9.20;8.33;;;3.40;99.90;;;3.65;69.04;103327.38;4916271;29;20103;-73
2021/03/06 04:54:00;;;;;;;9.53;8.43;;;3.40;99.90;;;3.70;69.35;103330.28;4916193;29;20071;-73
2021/03/06 04:56:27;;;;;;;9.77;8.17;;;3.40;99.90;;;3.63;68.86;103334.25;4915986;29;20055;-73
2021/03/06 04:58:54;;;;;;;10.63;8.47;;;3.40;99.90;;;3.63;68.63;103334.25;4899345;29;20143;-72
2021/03/06 05:01:22;;;;;;;10.23;8.67;;;3.40;99.90;;;3.63;68.81;103338.56;4916157;29;20123;-73
2021/03/06 05:03:49;;;;;;;10.27;9.37;;;3.40;99.90;;;3.68;69.25;103337.13;4916487;29;20044;-73
2021/03/06 05:06:17;;;;;;;9.60;8.67;;;3.40;99.90;;;3.67;68.87;103333.63;4899105;29;20079;-73
2021/03/06 05:08:44;;;;;;;8.93;7.93;;;3.50;99.90;;;3.62;69.08;103326.25;4916007;29;20123;-73
2021/03/06 05:11:12;;;;;;;8.93;8.17;;;3.50;99.90;;;3.66;69.03;103334.41;4898619;29;20104;-73
2021/03/06 05:13:39;;;;;;;9.17;8.30;;;3.50;99.90;;;3.71;69.15;103331.19;4916018;29;20124;-73
2021/03/06 05:16:07;;;;;;;8.93;8.20;;;3.50;99.90;;;3.70;68.90;103338.13;4899138;29;20060;-73
2021/03/06 05:18:35;;;;;;;9.90;8.50;;;3.50;99.90;;;3.56;69.69;103332.03;4915935;29;20048;-73
2021/03/06 05:21:02;;;;;;;9.30;8.33;;;3.40;99.90;;;3.68;69.89;103331.88;4915983;29;20048;-73
2021/03/06 05:23:29;;;;;;;9.50;8.70;;;3.50;99.90;;;3.66;69.84;103336.13;4919392;29;20463;-74
2021/03/06 05:25:57;;;;;;;9.10;8.23;;;3.40;99.90;;;3.61;69.97;103334.94;4919405;29;20127;-73
2021/03/06 05:28:25;;;;;;;8.13;7.33;;;3.40;99.90;;;3.54;70.13;103327.53;4919295;29;20052;-74
2021/03/06 05:30:53;;;;;;;8.90;8.00;;;3.40;99.90;;;3.53;70.05;103337.06;4919379;29;20044;-73
2021/03/06 05:33:22;;;;;;;9.17;8.27;;;3.30;99.90;;;3.50;69.92;103341.22;4919290;29;20052;-73
2021/03/06 05:35:49;;;;;;;9.13;8.17;;;3.30;99.90;;;3.47;69.74;103341.00;4919203;29;20512;-73
2021/03/06 05:38:17;;;;;;;9.60;8.73;;;3.20;99.90;;;3.42;69.74;103339.81;4919161;29;20040;-74
2021/03/06 05:40:47;;;;;;;9.33;7.90;;;3.20;99.90;;;3.37;70.19;103341.22;4919183;29;20048;-73
2021/03/06 05:43:16;;;;;;;9.93;8.90;;;3.10;99.90;;;3.33;71.15;103347.97;4919128;29;20490;-74
2021/03/06 05:45:47;;;;;;;9.90;8.67;;;3.10;99.90;;;3.38;71.38;103345.66;4919144;29;20040;-74
2021/03/06 05:48:17;;;;;;;10.43;8.97;;;3.20;99.90;;;3.35;70.72;103341.13;4919028;29;20524;-74
2021/03/06 05:50:47;;;;;;;9.35;8.38;;;3.10;99.90;;;3.35;70.56;103343.75;4918912;29;20048;-73
2021/03/06 05:53:16;;;;;;;9.50;8.60;;;3.20;99.90;;;3.34;70.42;103333.19;4919028;29;20075;-74
2021/03/06 05:55:49;;;;;;;11.23;8.67;;;3.10;99.90;;;3.39;70.16;103344.84;4919076;29;20048;-73
2021/03/06 05:58:18;;;;;;;10.03;9.03;;;3.10;99.90;;;3.29;70.14;103308.47;4918762;29;20123;-73
2021/03/06 06:00:47;;;;;;;12.97;9.67;;;3.20;99.90;;;3.49;69.95;103344.63;4918805;29;20047;-73
2021/03/06 06:03:17;;;;;;;11.27;9.30;;;3.30;99.90;;;3.44;70.02;103344.34;4918735;29;20051;-73
2021/03/06 06:05:46;;;;;;;12.67;9.33;;;3.20;99.90;;;3.49;69.79;103350.78;4918909;29;20052;-73
2021/03/06 06:08:14;;;;;;;11.60;10.33;;;3.30;99.90;;;3.40;70.34;103339.72;4918859;29;20139;-74
2021/03/06 06:10:42;;;;;;;10.87;9.30;;;3.30;99.90;;;3.44;70.19;103361.75;4901646;29;20048;-73
2021/03/06 06:13:09;;;;;;;12.37;10.07;;;3.30;99.90;;;3.42;70.45;103355.50;4918491;29;20075;-74
2021/03/06 06:15:37;;;;;;;11.73;10.23;;;3.30;99.90;;;3.41;71.29;103356.31;4918450;29;20060;-73
2021/03/06 06:18:06;;;;;;;12.57;9.50;;;3.20;99.90;;;3.43;71.02;103354.69;4918653;29;20087;-74
2021/03/06 06:20:38;;;;;;;10.97;9.80;;;3.20;99.90;;;3.38;70.87;103363.97;4918503;29;20165;-74
2021/03/06 06:23:13;;;;;;;14.43;10.07;;;3.20;99.90;;;3.43;70.62;103365.16;4918431;29;20107;-74
2021/03/06 06:25:43;;;;;;;11.10;9.07;;;3.20;99.90;;;3.44;70.47;103362.66;4901528;29;20080;-74
2021/03/06 06:28:19;;;;;;;14.43;10.77;;;3.20;99.90;;;3.55;70.28;103361.63;4918350;29;20044;-73
2021/03/06 06:31:08;;;;;;;17.20;10.87;;;3.30;99.90;;;3.54;69.84;103370.28;4901444;29;20138;-73
2021/03/06 06:33:37;;;;;;;13.17;11.60;;;3.30;99.90;;;3.65;70.41;103373.59;4917405;29;20048;-74
2021/03/06 06:36:05;;;;;;;14.27;10.97;;;3.40;99.90;;;3.77;69.75;103368.22;4918074;29;20052;-73
2021/03/06 06:38:42;;;;;;;17.20;12.57;;;3.50;99.90;;;3.92;69.65;103375.31;4917797;29;20123;-74
2021/03/06 06:41:09;;;;;;;14.13;10.83;;;3.60;99.90;;;3.96;67.94;103377.31;4918178;29;20048;-74
2021/03/06 06:43:37;;;;;;;11.40;10.10;;;3.70;99.90;;;4.05;67.66;103383.13;4901294;29;20426;-73
2021/03/06 06:46:04;;;;;;;14.53;10.67;;;3.80;99.90;;;4.16;67.97;103383.81;4917915;29;20451;-73
2021/03/06 06:48:32;;;;;;;13.83;10.50;;;3.90;99.90;;;4.45;67.62;103395.22;4917834;29;20127;-71
2021/03/06 06:51:11;;;;;;;12.40;10.07;;;4.10;99.90;;;4.73;67.21;103395.19;4917832;29;20048;-73
2021/03/06 06:53:38;;;;;;;16.57;10.83;;;4.40;99.90;;;5.01;66.92;103393.38;4900930;29;20048;-73
2021/03/06 06:56:23;;;;;;;15.30;10.27;;;4.60;99.90;;;5.35;66.62;103396.22;4917680;29;20075;-73
2021/03/06 06:58:51;;;;;;;17.17;10.63;;;4.90;99.90;;;5.68;66.13;103403.38;4917774;29;20107;-74
2021/03/06 07:01:33;;;;;;;13.33;10.00;;;5.30;99.90;;;5.84;65.16;103392.97;4917749;29;20070;-73
2021/03/06 07:04:04;;;;;;;13.70;10.43;;;5.50;99.90;;;6.15;63.99;103398.16;4917598;29;20052;-73
2021/03/06 07:06:32;;;;;;;14.85;9.95;;;5.80;99.90;;;6.43;63.44;103404.03;4918230;29;20051;-73
2021/03/06 07:09:08;;;;;;;14.10;9.40;;;6.00;99.90;;;6.67;62.72;103404.44;4917625;29;20103;-73
2021/03/06 07:11:37;;;;;;;14.10;9.03;;;6.30;99.90;;;6.85;62.14;103405.41;4917247;29;20096;-73
2021/03/06 07:14:06;;;;;;;15.93;9.60;;;6.50;99.90;;;6.49;61.45;103340.38;4917431;29;20044;-73
2021/03/06 07:16:58;;;;;;;11.00;8.73;;;6.50;99.90;;;6.93;61.34;103412.84;4917422;29;20131;-73
2021/03/06 07:19:30;;;;;;;12.40;9.00;;;6.60;99.90;;;6.95;61.15;103418.19;4917548;29;20043;-73
2021/03/06 07:21:59;;;;;;;13.03;9.53;;;6.60;99.90;;;7.01;61.10;103411.50;4917358;29;20052;-73
2021/03/06 07:24:27;;;;;;;10.13;8.87;;;6.70;99.90;;;7.19;60.90;103409.81;4900307;29;20138;-73
2021/03/06 07:26:55;;;;;;;13.07;9.23;;;6.90;99.90;;;7.49;60.76;103415.66;4917279;29;20059;-72
2021/03/06 07:29:24;;;;;;;11.98;8.38;;;7.20;99.90;;;7.68;60.32;103410.47;4917121;29;20048;-73
2021/03/06 07:31:54;;;;;;;13.98;8.70;;;7.40;99.90;;;8.15;59.26;103418.88;4900122;29;20059;-72
2021/03/06 07:34:25;;;;;;;14.35;8.75;;;7.80;99.90;;;8.49;58.58;103416.09;4917189;29;20040;-72
2021/03/06 07:37:04;;;;;;;14.07;9.27;;;8.20;99.90;;;9.05;57.92;103423.84;4916927;29;20118;-72
2021/03/06 07:39:40;;;;;;;14.40;8.63;;;8.70;99.90;;;9.67;56.84;103414.13;4917344;29;20067;-72
2021/03/06 07:42:21;;;;;;;17.33;10.88;;;9.30;99.90;;;10.03;56.26;103422.59;4916695;29;20052;-65
2021/03/06 07:44:54;;;;;;;13.45;10.05;;;9.80;99.90;;;10.23;55.33;103424.31;4916844;29;20058;-67
2021/03/06 07:47:26;;;;;;;17.52;10.00;;;10.10;99.90;;;9.90;55.45;103365.72;4916438;29;20040;-68
2021/03/06 07:49:58;;;;;;;14.35;10.27;;;10.10;99.90;;;10.09;56.33;103419.28;4899742;29;20491;-68
2021/03/06 07:52:27;;;;;;;11.20;8.90;;;9.90;99.90;;;10.19;56.65;103416.19;4916738;29;20048;-68
2021/03/06 07:54:56;;;;;;;14.18;9.32;;;9.90;99.90;;;10.15;56.50;103419.56;4916648;29;20213;-68
2021/03/06 07:57:23;;;;;;;15.68;11.35;;;10.00;99.90;;;9.64;57.48;103421.91;4916969;29;20376;-69
2021/03/06 07:59:53;;;;;;;17.73;10.73;;;9.50;99.90;;;9.52;58.23;103418.81;4916785;29;20048;-67
2021/03/06 08:02:37;;;;;;;15.93;10.10;;;9.30;99.90;;;9.30;59.72;103420.47;4916516;29;20048;-68
2021/03/06 08:05:45;;;;;;;16.00;10.77;;;9.00;99.90;;;9.41;59.31;103446.50;4899651;29;20532;-69
2021/03/06 08:09:06;;;;;;;20.45;10.55;;;9.30;99.90;;;10.06;57.80;103422.72;4916419;29;20047;-69
2021/03/06 08:11:53;;;;;;;18.15;10.65;;;9.60;99.90;;;10.74;57.12;103430.63;4896085;29;20506;-69
2021/03/06 08:14:30;;;;;;;17.92;10.63;;;10.30;99.90;;;10.72;56.34;103432.31;4916573;29;20103;-69
2021/03/06 08:16:58;;;;;;;19.02;10.60;;;10.50;99.90;;;11.21;55.63;103437.56;4916465;29;20044;-69
2021/03/06 08:19:31;;;;;;;14.07;9.48;;;10.90;99.90;;;11.43;54.72;103434.78;4916423;29;20044;-69
2021/03/06 08:22:15;;;;;;;15.73;10.18;;;11.20;99.90;;;10.20;55.44;103437.41;4916284;29;20047;-69
2021/03/06 08:24:44;;;;;;;17.00;10.30;;;10.40;99.90;;;9.03;59.47;103431.69;4899179;29;20495;-69
2021/03/06 08:27:18;;;;;;;17.58;9.68;;;9.10;99.90;;;10.14;59.04;103437.19;4915945;29;20072;-68
2021/03/06 08:29:58;;;;;;;21.48;9.52;;;9.60;99.90;;;10.86;56.57;103434.59;4916422;29;20135;-69
2021/03/06 08:32:33;;;;;;;14.20;8.38;;;10.50;99.90;;;11.52;54.90;103432.44;4916432;29;20100;-69
2021/03/06 08:35:18;;;;;;;15.23;7.93;;;11.10;99.90;;;11.46;53.50;103340.38;4916160;29;20040;-70
2021/03/06 08:37:47;;;;;;;12.20;8.00;;;11.70;99.90;;;12.48;52.64;103446.16;4899254;29;20103;-67
2021/03/06 08:40:23;;;;;;;16.58;7.57;;;12.30;99.90;;;12.84;51.08;103437.38;4916135;29;20048;-67
2021/03/06 08:42:53;;;;;;;13.73;7.70;;;12.60;99.90;;;12.89;49.68;103423.38;4916195;29;20052;-67
2021/03/06 08:45:23;;;;;;;14.47;6.47;;;12.90;99.90;;;13.22;49.85;103447.34;4916224;29;20060;-67
2021/03/06 08:47:57;;;;;;;10.07;6.15;;;13.00;99.90;;;13.57;48.46;103443.78;4915793;29;20124;-69
2021/03/06 08:50:27;;;;;;;10.63;6.57;;;13.40;99.90;;;13.81;47.45;103446.16;4916415;29;20048;-68
2021/03/06 08:53:00;;;;;;;11.48;6.57;;;13.60;99.90;;;13.89;46.73;103434.84;4916125;29;20066;-68
2021/03/06 08:55:29;;;;;;;16.80;6.75;;;13.80;99.90;;;13.96;46.36;103442.09;4916077;29;20052;-70
2021/03/06 08:58:01;;;;;;;11.95;5.63;;;13.80;99.90;;;14.11;46.48;103460.19;4918914;29;20048;-69
2021/03/06 09:00:30;;;;;;;;;;;14.00;99.90;;;14.38;46.18;103444.84;4920161;29;20048;-68
2021/03/06 09:03:10;;;;;;;8.55;5.00;;;14.20;99.90;;;14.58;45.08;103455.88;4919985;29;20023;-68
2021/03/06 09:05:38;;;;;;;10.10;5.18;;;14.40;99.90;;;14.73;44.05;103454.44;4902840;29;20576;-67
2021/03/06 09:08:06;;;;;;;11.25;6.25;;;14.60;99.90;;;14.89;44.41;103456.53;4919639;29;20099;-69
2021/03/06 09:10:38;;;;;;;10.73;4.97;;;14.70;99.90;;;14.99;43.26;103462.94;4902642;29;20103;-67
2021/03/06 09:13:14;;;;;;;7.90;4.72;;;14.80;99.90;;;15.15;42.70;103454.38;4919209;29;20071;-69
2021/03/06 09:15:48;;;;;;;10.68;5.28;;;14.90;99.90;;;14.33;43.91;103454.47;4902821;29;20115;-70
2021/03/06 09:18:19;;;;;;;9.93;5.30;;;14.20;99.90;;;14.59;44.00;103463.03;4919407;29;20131;-69
2021/03/06 09:20:54;;;;;;;11.20;5.13;;;14.30;99.90;;;14.91;42.57;103465.47;4919517;29;20056;-67
2021/03/06 09:23:31;;;;;;;13.00;5.22;;;14.60;99.90;;;14.46;41.95;103457.44;4919459;29;20091;-67
2021/03/06 09:26:04;;;;;;;10.05;5.28;;;14.40;99.90;;;12.06;44.91;103451.91;4919428;29;20143;-69
2021/03/06 09:28:34;;;;;;;10.10;5.75;;;13.00;99.90;;;12.39;48.17;103448.50;4919609;29;20040;-68
2021/03/06 09:31:05;;;;;;;10.38;5.38;;;12.20;99.90;;;12.59;45.97;103398.63;4919217;29;20053;-68
2021/03/06 09:33:35;;;;;;;10.40;5.55;;;12.70;99.90;;;9.88;50.23;103435.22;4918809;29;20080;-68
2021/03/06 09:36:08;;;;;;;15.18;6.05;;;10.40;99.90;;;9.24;53.21;103439.63;4919202;29;20096;-68
2021/03/06 09:38:46;;;;;;;10.93;5.60;;;9.50;99.90;;;9.57;56.37;103441.03;4919110;29;20051;-67
2021/03/06 09:41:15;;;;;;;11.88;7.13;;;9.10;99.90;;;10.87;52.38;103439.06;4919367;29;20048;-67
2021/03/06 09:43:50;;;;;;;9.93;5.63;;;10.30;99.90;;;10.52;50.75;103431.59;4919026;29;20048;-68
2021/03/06 09:46:20;;;;;;;9.13;5.75;;;10.60;99.90;;;10.68;51.63;103436.56;4901885;29;20056;-67
2021/03/06 09:48:53;;;;;;;11.02;5.35;;;10.50;99.90;;;10.85;50.64;103431.91;4918810;29;20048;-67
2021/03/06 09:51:22;;;;;;;11.55;6.22;;;10.60;99.90;;;8.49;54.98;103417.81;4918980;29;20052;-67
2021/03/06 09:53:58;;;;;;;12.43;5.68;;;8.90;99.90;;;8.94;56.45;103426.00;4918915;29;20088;-67
2021/03/06 09:56:26;;;;;;;10.48;5.20;;;8.70;99.90;;;9.65;55.02;103420.19;4901840;29;20150;-67
2021/03/06 09:59:05;;;;;;;8.70;5.22;;;9.20;99.90;;;10.42;52.27;103392.41;4918758;29;20055;-67
2021/03/06 10:01:34;;;;;;;11.38;5.32;;;10.10;99.90;;;9.13;52.26;103421.53;4918735;29;20459;-67
2021/03/06 10:04:10;;;;;;;10.48;4.55;;;9.50;99.90;;;8.07;54.85;103422.88;4901993;29;20147;-67
2021/03/06 10:06:40;;;;;;;11.27;5.55;;;8.40;99.90;;;7.59;56.32;103382.81;4918616;29;20565;-67
2021/03/06 10:09:11;;;;;;;11.20;5.57;;;7.80;99.90;;;6.98;58.80;103273.63;4917244;29;20055;-67
2021/03/06 10:11:39;;;;;;;;;;;7.60;99.90;;;6.86;59.74;103413.34;4918899;29;20123;-67
2021/03/06 10:14:11;;;;;;;15.80;6.20;;;7.00;99.90;;;6.83;60.25;103404.41;4901164;29;20384;-67
2021/03/06 10:16:50;;;;;;;13.13;6.07;;;6.70;99.90;;;6.70;60.56;103402.84;4918211;29;20040;-68
2021/03/06 10:19:20;;;;;;;13.73;6.90;;;6.60;99.90;;;6.51;62.09;103407.06;4918253;29;20044;-67
2021/03/06 10:22:02;;;;;;;14.67;5.87;;;6.40;99.90;;;6.70;60.89;103396.69;4918237;29;20130;-67
2021/03/06 10:24:30;;;;;;;14.87;6.30;;;6.50;99.90;;;7.26;60.98;103395.19;4901228;29;20376;-67
2021/03/06 10:26:59;;;;;;;14.07;5.20;;;6.90;99.90;;;7.13;60.20;103396.34;4918290;29;20064;-67
2021/03/06 10:29:29;;;;;;;11.27;5.60;;;7.00;99.90;;;7.11;59.79;103398.00;4901165;29;20092;-67
2021/03/06 10:31:59;;;;;;;8.90;6.45;;;7.00;99.90;;;6.46;61.59;103388.44;4901082;29;20056;-67
2021/03/06 10:34:48;;;;;;;13.57;6.77;;;6.50;99.90;;;7.34;60.40;103399.13;4918257;29;20075;-67